< < Back
Terminal Aerodrome Forecast


Current Version              Previous Versions:   1  2  3  4  5  6  7  8  9  

Terminal Aerodrome Forecast

483
FTUS42 KFFC 011353 AAA
TAFPDK
TAF AMD
KPDK 011353Z 0114/0212 30005KT P6SM FEW250
     FM011800 34006KT P6SM FEW045
     FM012100 VRB03KT P6SM SCT050
     FM020600 09004KT P6SM BKN012
     FM020900 12005KT 3SM BR BKN007=

Latest METAR

172
SAUS70 KWBC 020800 RRA
MTRPDK
METAR KPDK 020753Z AUTO VRB05KT 9SM FEW065 15/09 A3012 RMK AO2 SLP189
T01500094


USA.gov is the U.S. government's official web portal to all federal, state and local government web resources and services.